Time;durP1;ratioP1;P1;durP2;ratioP2;P2;SDS_P1;SDS_P2;PMS_P1;PMS_P2;Temp;Humidity;BMP_temperature;BMP_pressure;BME280_temperature;BME280_humidity;BME280_pressure;Samples;Min_cycle;Max_cycle;Signal;HPM_P1;HPM_P2
2021/12/27 00:01:38;;;;;;;3.42;3.05;;;21.70;49.00;;;;;;4955753;28;20223;-70
2021/12/27 00:04:04;;;;;;;2.75;2.50;;;21.70;49.10;;;;;;4955022;29;20190;-70
2021/12/27 00:06:30;;;;;;;2.80;2.50;;;21.70;49.00;;;;;;4956053;29;20275;-70
2021/12/27 00:08:56;;;;;;;2.60;2.40;;;21.70;49.00;;;;;;4954235;29;20307;-70
2021/12/27 00:11:22;;;;;;;3.60;2.70;;;21.70;49.00;;;;;;4938232;29;20293;-70
2021/12/27 00:13:48;;;;;;;2.90;2.50;;;21.70;49.00;;;;;;4937965;28;20432;-70
2021/12/27 00:16:15;;;;;;;3.60;3.10;;;21.70;49.00;;;;;;4952224;28;20209;-70
2021/12/27 00:18:41;;;;;;;3.63;2.92;;;21.70;49.00;;;;;;4954509;29;20202;-70
2021/12/27 00:21:07;;;;;;;2.88;2.60;;;21.70;49.00;;;;;;4929860;29;20187;-70
2021/12/27 00:23:33;;;;;;;3.00;2.72;;;21.70;49.10;;;;;;4961513;28;20617;-70
2021/12/27 00:25:59;;;;;;;2.90;2.67;;;21.70;49.00;;;;;;4971580;28;20217;-70
2021/12/27 00:28:27;;;;;;;2.50;2.30;;;21.70;49.00;;;;;;4957555;28;20217;-70
2021/12/27 00:30:53;;;;;;;3.05;2.80;;;21.70;49.70;;;;;;4973946;28;20186;-70
2021/12/27 00:33:18;;;;;;;3.35;2.72;;;21.70;49.00;;;;;;4957937;28;20178;-70
2021/12/27 00:35:46;;;;;;;4.00;2.72;;;21.70;49.00;;;;;;4973778;28;20205;-70
2021/12/27 00:38:12;;;;;;;2.50;2.30;;;21.70;49.00;;;;;;4957840;28;20660;-70
2021/12/27 00:40:37;;;;;;;2.80;2.47;;;21.70;49.00;;;;;;4974571;28;20185;-70
2021/12/27 00:43:03;;;;;;;2.60;2.30;;;21.70;49.00;;;;;;4957869;28;20194;-70
2021/12/27 00:45:29;;;;;;;2.40;2.20;;;21.70;49.00;;;;;;4973983;28;20213;-70
2021/12/27 00:47:55;;;;;;;2.50;2.30;;;21.70;49.00;;;;;;4958114;28;20422;-70
2021/12/27 00:50:21;;;;;;;2.63;2.42;;;21.70;49.00;;;;;;4965966;28;20195;-70
2021/12/27 00:52:48;;;;;;;2.08;1.98;;;21.70;49.00;;;;;;4950063;29;20245;-70
2021/12/27 00:55:15;;;;;;;3.67;2.85;;;21.70;49.10;;;;;;4970071;28;20198;-70
2021/12/27 00:57:41;;;;;;;2.30;2.10;;;21.70;49.70;;;;;;4954603;29;20198;-70
2021/12/27 01:00:13;;;;;;;2.75;2.20;;;21.70;49.10;;;;;;4970740;28;20217;-70
2021/12/27 01:02:39;;;;;;;2.30;2.10;;;21.70;49.00;;;;;;4954796;29;20206;-70
2021/12/27 01:05:06;;;;;;;2.75;2.35;;;21.70;49.00;;;;;;4970478;28;20210;-70
2021/12/27 01:07:32;;;;;;;2.72;2.53;;;21.70;49.00;;;;;;4955443;29;20214;-70
2021/12/27 01:10:21;;;;;;;2.83;2.40;;;21.70;49.00;;;;;;4938724;29;20189;-70
2021/12/27 01:13:06;;;;;;;2.70;2.50;;;21.70;49.00;;;;;;4937962;29;20189;-70
2021/12/27 01:15:48;;;;;;;2.50;2.30;;;21.70;49.00;;;;;;4953829;29;20305;-70
2021/12/27 01:18:17;;;;;;;2.10;1.90;;;21.70;49.00;;;;;;4953810;29;20266;-70
2021/12/27 01:20:43;;;;;;;2.40;2.20;;;21.70;49.00;;;;;;4945906;29;20196;-70
2021/12/27 01:23:10;;;;;;;2.20;2.00;;;21.70;49.00;;;;;;4968416;28;20261;-70
2021/12/27 01:25:37;;;;;;;1.85;1.70;;;21.70;49.10;;;;;;4969862;28;20218;-70
2021/12/27 01:28:04;;;;;;;2.10;1.90;;;21.70;49.00;;;;;;4953494;28;20269;-70
2021/12/27 01:30:36;;;;;;;2.20;2.00;;;21.70;49.00;;;;;;4955310;28;20182;-70
2021/12/27 01:33:03;;;;;;;2.30;2.10;;;21.70;49.00;;;;;;4970257;28;20187;-70
2021/12/27 01:35:29;;;;;;;2.50;2.10;;;21.70;49.00;;;;;;4954119;29;20207;-70
2021/12/27 01:37:55;;;;;;;2.40;2.20;;;21.70;49.00;;;;;;4955987;28;20190;-70
2021/12/27 01:40:27;;;;;;;2.30;2.10;;;21.70;49.00;;;;;;4953926;29;20603;-70
2021/12/27 01:43:31;;;;;;;2.50;2.30;;;21.70;49.00;;;;;;4954960;28;20191;-70
2021/12/27 01:46:02;;;;;;;2.40;2.20;;;21.70;49.60;;;;;;4949682;29;20226;-70
2021/12/27 01:48:33;;;;;;;3.05;2.22;;;21.70;49.00;;;;;;4955529;28;20245;-70
2021/12/27 01:51:01;;;;;;;2.15;1.95;;;21.70;49.00;;;;;;4950499;29;20201;-71
2021/12/27 01:53:32;;;;;;;1.90;1.80;;;21.70;49.00;;;;;;4952806;29;20217;-71
2021/12/27 01:55:59;;;;;;;2.08;1.90;;;21.70;49.00;;;;;;4953020;29;20257;-70
2021/12/27 01:58:26;;;;;;;2.08;1.88;;;21.70;49.00;;;;;;4952752;29;20218;-70
2021/12/27 02:00:58;;;;;;;1.90;1.80;;;21.70;48.90;;;;;;4953031;29;20197;-70
2021/12/27 02:03:28;;;;;;;2.15;1.95;;;21.70;48.90;;;;;;4953067;29;20626;-70
2021/12/27 02:05:55;;;;;;;2.00;1.90;;;21.70;48.90;;;;;;4952593;29;20229;-70
2021/12/27 02:08:22;;;;;;;2.35;2.15;;;21.70;48.90;;;;;;4937102;29;20313;-70
2021/12/27 02:10:49;;;;;;;2.30;2.10;;;21.70;48.90;;;;;;4953793;29;20193;-70
2021/12/27 02:13:16;;;;;;;2.58;2.38;;;21.70;48.90;;;;;;4953240;29;20183;-70
2021/12/27 02:15:42;;;;;;;2.40;2.17;;;21.70;48.90;;;;;;4953181;28;20629;-70
2021/12/27 02:18:11;;;;;;;2.53;2.33;;;21.70;48.90;;;;;;4953879;29;20348;-70
2021/12/27 02:20:41;;;;;;;2.08;1.88;;;21.70;48.90;;;;;;4947417;29;20218;-70
2021/12/27 02:23:15;;;;;;;2.45;2.25;;;21.70;48.90;;;;;;4954526;28;20190;-70
2021/12/27 02:25:46;;;;;;;2.40;2.20;;;21.70;48.90;;;;;;4953552;29;20717;-70
2021/12/27 02:28:13;;;;;;;1.70;1.60;;;21.70;48.90;;;;;;4952708;29;20353;-70
2021/12/27 02:30:43;;;;;;;1.88;1.75;;;21.70;48.80;;;;;;4952564;29;20190;-70
2021/12/27 02:33:10;;;;;;;2.05;1.85;;;21.70;48.90;;;;;;4953065;29;20186;-70
2021/12/27 02:35:41;;;;;;;1.70;1.60;;;21.70;49.50;;;;;;4936865;29;20237;-70
2021/12/27 02:38:19;;;;;;;1.80;1.70;;;21.70;48.90;;;;;;4953696;28;20269;-70
2021/12/27 02:40:46;;;;;;;1.92;1.77;;;21.70;48.90;;;;;;4956450;29;20218;-70
2021/12/27 02:43:20;;;;;;;1.70;1.60;;;21.70;48.80;;;;;;4957077;29;20190;-70
2021/12/27 02:45:51;;;;;;;2.20;2.00;;;21.70;48.80;;;;;;4941143;29;20238;-70
2021/12/27 02:48:20;;;;;;;2.00;1.90;;;21.70;48.80;;;;;;4957280;29;20223;-70
2021/12/27 02:50:49;;;;;;;2.15;1.95;;;21.70;48.80;;;;;;4957380;28;20183;-70
2021/12/27 02:53:16;;;;;;;2.13;1.92;;;21.70;48.80;;;;;;4957409;29;20222;-70
2021/12/27 02:55:42;;;;;;;1.83;1.73;;;21.70;48.80;;;;;;4973335;28;20301;-70
2021/12/27 02:58:09;;;;;;;1.80;1.70;;;21.70;48.80;;;;;;4956324;29;20183;-70
2021/12/27 03:00:41;;;;;;;2.30;2.10;;;21.70;49.40;;;;;;4972258;28;20240;-70
2021/12/27 03:03:07;;;;;;;1.98;1.80;;;21.70;48.90;;;;;;4956197;28;20287;-70
2021/12/27 03:05:34;;;;;;;2.03;1.88;;;21.70;48.80;;;;;;4956769;28;20285;-70
2021/12/27 03:08:01;;;;;;;1.50;1.40;;;21.70;48.80;;;;;;4972424;28;20218;-70
2021/12/27 03:10:32;;;;;;;1.70;1.60;;;21.60;48.80;;;;;;4956901;29;20570;-70
2021/12/27 03:13:02;;;;;;;1.83;1.60;;;21.70;48.90;;;;;;4956889;29;20245;-70
2021/12/27 03:15:28;;;;;;;1.70;1.60;;;21.70;48.90;;;;;;4938203;29;20210;-70
2021/12/27 03:17:55;;;;;;;1.80;1.52;;;21.70;48.90;;;;;;4940409;29;20716;-70
2021/12/27 03:20:25;;;;;;;1.52;1.42;;;21.70;48.80;;;;;;4948521;29;20186;-70
2021/12/27 03:22:51;;;;;;;1.95;1.70;;;21.70;48.80;;;;;;4929987;28;20201;-70
2021/12/27 03:25:24;;;;;;;1.63;1.52;;;21.70;48.80;;;;;;4965860;28;20202;-70
2021/12/27 03:27:53;;;;;;;1.90;1.80;;;21.70;48.80;;;;;;4957792;29;20222;-69
2021/12/27 03:30:24;;;;;;;1.70;1.60;;;21.70;48.90;;;;;;4940290;29;20195;-70
2021/12/27 03:32:51;;;;;;;1.83;1.73;;;21.70;48.90;;;;;;4958291;29;20277;-70
2021/12/27 03:35:25;;;;;;;2.10;1.90;;;21.70;48.80;;;;;;4956562;29;20269;-70
2021/12/27 03:37:58;;;;;;;2.10;1.73;;;21.70;48.90;;;;;;4956602;29;20201;-70
2021/12/27 03:40:26;;;;;;;1.83;1.73;;;21.70;48.90;;;;;;4940577;29;20190;-70
2021/12/27 03:42:54;;;;;;;1.48;1.38;;;21.70;48.80;;;;;;4955801;29;20186;-70
2021/12/27 03:45:32;;;;;;;1.70;1.60;;;21.70;48.80;;;;;;4939655;29;20215;-70
2021/12/27 03:47:59;;;;;;;1.75;1.65;;;21.70;48.90;;;;;;4957414;29;20261;-70
2021/12/27 03:50:25;;;;;;;1.55;1.45;;;21.70;48.90;;;;;;4949391;28;20193;-70
2021/12/27 03:52:56;;;;;;;1.63;1.52;;;21.70;48.90;;;;;;4958037;28;20214;-70
2021/12/27 03:55:23;;;;;;;1.33;1.23;;;21.70;48.90;;;;;;4955100;29;20210;-70
2021/12/27 03:57:54;;;;;;;2.00;1.63;;;21.60;48.80;;;;;;4939325;29;20198;-70
2021/12/27 04:00:46;;;;;;;1.50;1.40;;;21.60;48.80;;;;;;4956355;29;20229;-70
2021/12/27 04:03:15;;;;;;;1.55;1.45;;;21.70;48.90;;;;;;4955471;29;20190;-70
2021/12/27 04:05:41;;;;;;;1.80;1.70;;;21.70;48.80;;;;;;4954512;29;20222;-70
2021/12/27 04:08:09;;;;;;;1.73;1.63;;;21.60;48.80;;;;;;4955528;29;20239;-70
2021/12/27 04:10:41;;;;;;;2.17;2.00;;;21.60;48.80;;;;;;4939331;29;20189;-70
2021/12/27 04:13:12;;;;;;;1.67;1.58;;;21.60;48.80;;;;;;4955604;29;20186;-70
2021/12/27 04:15:39;;;;;;;1.40;1.30;;;21.70;48.80;;;;;;4939431;29;20199;-70
2021/12/27 04:18:09;;;;;;;1.50;1.40;;;21.60;48.80;;;;;;4939298;29;20233;-70
2021/12/27 04:20:35;;;;;;;1.30;1.20;;;21.60;48.80;;;;;;4962997;28;20198;-70
2021/12/27 04:23:01;;;;;;;1.38;1.27;;;21.60;48.80;;;;;;4955814;29;20186;-70
2021/12/27 04:25:26;;;;;;;1.40;1.30;;;21.60;48.80;;;;;;4970379;28;20208;-70
2021/12/27 04:27:52;;;;;;;1.58;1.48;;;21.60;48.80;;;;;;4954361;29;20287;-70
2021/12/27 04:30:20;;;;;;;1.05;1.05;;;21.70;48.80;;;;;;4970807;28;20190;-70
2021/12/27 04:32:47;;;;;;;1.45;1.35;;;21.60;48.80;;;;;;4955610;29;20190;-70
2021/12/27 04:35:15;;;;;;;1.40;1.23;;;21.60;48.80;;;;;;4971100;28;20783;-70
2021/12/27 04:37:41;;;;;;;1.48;1.38;;;21.60;48.80;;;;;;4971058;28;20257;-70
2021/12/27 04:40:11;;;;;;;1.65;1.55;;;21.60;48.80;;;;;;4955131;28;20194;-70
2021/12/27 04:42:41;;;;;;;1.45;1.35;;;21.60;48.80;;;;;;4955005;28;20197;-70
2021/12/27 04:45:08;;;;;;;1.48;1.38;;;21.60;48.80;;;;;;4954493;28;20206;-70
2021/12/27 04:47:34;;;;;;;1.55;1.45;;;21.60;48.80;;;;;;4970709;28;20265;-70
2021/12/27 04:50:00;;;;;;;1.65;1.55;;;21.60;48.80;;;;;;4966473;28;20194;-70
2021/12/27 04:52:26;;;;;;;1.65;1.55;;;21.60;48.80;;;;;;4954837;29;20242;-70
2021/12/27 04:54:52;;;;;;;1.50;1.40;;;21.70;48.80;;;;;;4938324;29;20186;-70
2021/12/27 04:57:18;;;;;;;1.95;1.60;;;21.60;48.80;;;;;;4953563;29;20285;-70
2021/12/27 04:59:44;;;;;;;2.25;2.05;;;21.60;48.80;;;;;;4955093;29;20198;-70
2021/12/27 05:02:10;;;;;;;1.50;1.40;;;21.70;48.80;;;;;;4937364;29;20194;-70
2021/12/27 05:04:36;;;;;;;1.38;1.27;;;21.60;48.80;;;;;;4937859;29;20240;-69
2021/12/27 05:07:02;;;;;;;1.45;1.35;;;21.60;48.80;;;;;;4938896;29;20209;-70
2021/12/27 05:09:28;;;;;;;1.40;1.30;;;21.60;48.80;;;;;;4954100;29;20179;-70
2021/12/27 05:11:54;;;;;;;1.60;1.50;;;21.60;48.80;;;;;;4953696;28;20820;-70
2021/12/27 05:14:20;;;;;;;1.33;1.23;;;21.60;48.80;;;;;;4954534;29;20197;-70
2021/12/27 05:16:47;;;;;;;1.60;1.50;;;21.60;48.80;;;;;;4938477;28;20319;-70
2021/12/27 05:19:14;;;;;;;1.15;1.13;;;21.60;48.80;;;;;;4937695;29;20207;-70
2021/12/27 05:21:40;;;;;;;1.50;1.40;;;21.60;48.80;;;;;;4959406;28;20194;-70
2021/12/27 05:24:06;;;;;;;1.38;1.27;;;21.60;48.80;;;;;;4954631;29;20209;-70
2021/12/27 05:26:32;;;;;;;1.50;1.40;;;21.60;48.80;;;;;;4953772;29;20214;-70
2021/12/27 05:28:58;;;;;;;1.38;1.27;;;21.60;48.80;;;;;;4954057;29;20277;-70
2021/12/27 05:31:24;;;;;;;1.40;1.30;;;21.60;48.80;;;;;;4954467;29;20198;-70
2021/12/27 05:33:51;;;;;;;1.40;1.30;;;21.70;48.80;;;;;;4954529;29;20195;-70
2021/12/27 05:36:17;;;;;;;1.60;1.50;;;21.70;48.80;;;;;;4955098;29;20265;-70
2021/12/27 05:38:43;;;;;;;1.88;1.70;;;21.70;48.90;;;;;;4937450;29;20221;-70
2021/12/27 05:41:09;;;;;;;2.08;1.80;;;21.60;48.80;;;;;;4953656;29;20190;-70
2021/12/27 05:43:34;;;;;;;1.67;1.58;;;21.70;48.80;;;;;;4953709;29;20245;-70
2021/12/27 05:46:02;;;;;;;1.52;1.42;;;21.70;48.80;;;;;;4952989;29;20218;-70
2021/12/27 05:48:28;;;;;;;1.85;1.75;;;21.60;48.80;;;;;;4953403;29;20301;-70
2021/12/27 05:50:54;;;;;;;1.85;1.75;;;21.60;48.80;;;;;;4932165;29;20182;-70
2021/12/27 05:53:20;;;;;;;1.83;1.73;;;21.60;48.80;;;;;;4937698;29;20201;-70
2021/12/27 05:55:46;;;;;;;1.50;1.40;;;21.60;48.80;;;;;;4936848;28;20225;-70
2021/12/27 05:58:12;;;;;;;1.52;1.42;;;21.60;48.80;;;;;;4953290;29;20191;-70
2021/12/27 06:00:39;;;;;;;1.50;1.40;;;21.60;48.80;;;;;;4937675;29;20555;-70
2021/12/27 06:03:06;;;;;;;1.50;1.40;;;21.60;48.80;;;;;;4937965;29;20198;-70
2021/12/27 06:05:31;;;;;;;1.30;1.20;;;21.60;48.80;;;;;;4937272;29;20214;-70
2021/12/27 06:08:01;;;;;;;1.40;1.30;;;21.60;48.80;;;;;;4954984;29;20298;-70
2021/12/27 06:10:26;;;;;;;1.20;1.20;;;21.60;48.80;;;;;;4937460;29;20194;-70
2021/12/27 06:12:53;;;;;;;1.20;1.10;;;21.60;48.80;;;;;;4937498;28;20187;-70
2021/12/27 06:15:19;;;;;;;1.48;1.38;;;21.60;48.80;;;;;;4937314;28;20198;-70
2021/12/27 06:17:45;;;;;;;1.50;1.40;;;21.60;48.80;;;;;;4936598;29;20217;-70
2021/12/27 06:20:15;;;;;;;1.13;1.13;;;21.60;48.80;;;;;;4958916;28;20198;-70
2021/12/27 06:22:49;;;;;;;1.30;1.20;;;21.60;48.80;;;;;;4952433;28;20194;-70
2021/12/27 06:25:15;;;;;;;1.45;1.35;;;21.70;48.90;;;;;;4936161;29;20298;-70
2021/12/27 06:27:41;;;;;;;1.90;1.80;;;21.60;48.80;;;;;;4953606;29;20202;-70
2021/12/27 06:30:10;;;;;;;2.35;1.67;;;21.60;48.80;;;;;;4953564;29;20183;-70
2021/12/27 06:32:37;;;;;;;1.60;1.50;;;21.70;48.80;;;;;;4953755;29;20190;-70
2021/12/27 06:35:07;;;;;;;1.83;1.73;;;21.60;48.80;;;;;;4953348;29;20210;-70
2021/12/27 06:37:33;;;;;;;2.22;2.03;;;21.60;48.80;;;;;;4953490;29;20195;-70
2021/12/27 06:39:59;;;;;;;2.00;1.90;;;21.60;48.80;;;;;;4953635;29;20198;-70
2021/12/27 06:42:25;;;;;;;1.63;1.52;;;21.60;48.80;;;;;;4953713;29;20257;-70
2021/12/27 06:44:51;;;;;;;2.42;2.22;;;21.60;48.80;;;;;;4937238;29;20383;-70
2021/12/27 06:47:17;;;;;;;1.77;1.67;;;21.60;48.80;;;;;;4937309;29;20339;-70
2021/12/27 06:49:43;;;;;;;1.60;1.50;;;21.60;48.80;;;;;;4948043;29;20194;-70
2021/12/27 06:52:11;;;;;;;1.25;1.17;;;21.60;48.80;;;;;;4937257;29;20189;-70
2021/12/27 06:54:39;;;;;;;1.20;1.20;;;21.60;48.80;;;;;;4952882;29;20190;-70
2021/12/27 06:57:05;;;;;;;1.48;1.38;;;21.60;48.80;;;;;;4969532;28;20214;-70
2021/12/27 06:59:31;;;;;;;1.20;1.10;;;21.60;48.80;;;;;;4969249;28;20218;-70
2021/12/27 07:01:57;;;;;;;1.40;1.30;;;21.60;48.80;;;;;;4953892;29;20190;-70
2021/12/27 07:04:23;;;;;;;1.13;1.10;;;21.60;48.80;;;;;;4969486;28;20237;-70
2021/12/27 07:06:49;;;;;;;1.25;1.20;;;21.60;48.80;;;;;;4937100;29;20207;-70
2021/12/27 07:09:15;;;;;;;1.40;1.30;;;21.60;48.80;;;;;;4953017;29;20215;-70
2021/12/27 07:11:42;;;;;;;1.30;1.20;;;21.60;48.80;;;;;;4936788;29;20186;-70
2021/12/27 07:14:07;;;;;;;1.25;1.25;;;21.60;48.80;;;;;;4952467;29;20178;-70
2021/12/27 07:16:34;;;;;;;1.30;1.20;;;21.60;48.80;;;;;;4936967;29;20209;-70
2021/12/27 07:18:59;;;;;;;1.50;1.40;;;21.60;48.80;;;;;;4934390;29;20290;-70
2021/12/27 07:21:25;;;;;;;1.83;1.73;;;21.60;48.80;;;;;;4957829;28;20179;-71
2021/12/27 07:23:51;;;;;;;1.60;1.50;;;21.60;48.80;;;;;;4952804;29;20194;-70
2021/12/27 07:26:17;;;;;;;1.70;1.60;;;21.60;48.80;;;;;;4971221;28;20209;-70
2021/12/27 07:28:43;;;;;;;1.88;1.77;;;21.60;48.80;;;;;;4971705;28;20202;-70
2021/12/27 07:31:10;;;;;;;2.28;2.08;;;21.60;48.80;;;;;;4972129;28;20330;-70
2021/12/27 07:33:36;;;;;;;2.13;1.95;;;21.60;49.40;;;;;;4921273;29;20667;-70
2021/12/27 07:36:06;;;;;;;1.88;1.77;;;21.60;48.80;;;;;;4936856;29;20222;-70
2021/12/27 07:38:32;;;;;;;1.88;1.77;;;21.60;49.40;;;;;;4932471;28;20189;-70
2021/12/27 07:40:58;;;;;;;1.75;1.65;;;21.60;48.80;;;;;;4975752;28;20186;-70
2021/12/27 07:43:23;;;;;;;1.77;1.67;;;21.60;48.80;;;;;;4951786;29;20649;-70
2021/12/27 07:45:49;;;;;;;1.52;1.42;;;21.60;48.80;;;;;;4963882;28;20293;-70
2021/12/27 07:48:17;;;;;;;1.67;1.58;;;21.60;48.80;;;;;;4965717;28;20222;-70
2021/12/27 07:50:43;;;;;;;1.35;1.25;;;21.60;48.80;;;;;;4951227;29;20210;-70
2021/12/27 07:53:09;;;;;;;1.10;1.10;;;21.60;48.80;;;;;;4957458;29;20195;-70
2021/12/27 07:55:34;;;;;;;1.42;1.33;;;21.60;48.80;;;;;;4955174;29;20218;-72
2021/12/27 07:58:01;;;;;;;1.20;1.20;;;21.60;48.80;;;;;;4956706;29;20191;-70
2021/12/27 08:00:28;;;;;;;1.40;1.30;;;21.60;48.80;;;;;;4956812;29;20190;-70
2021/12/27 08:02:55;;;;;;;1.23;1.17;;;21.60;48.80;;;;;;4957708;29;20182;-70
2021/12/27 08:05:21;;;;;;;1.33;1.23;;;21.60;48.90;;;;;;4948041;29;20261;-70
2021/12/27 08:07:47;;;;;;;1.10;1.10;;;21.60;48.80;;;;;;4935653;29;20222;-70
2021/12/27 08:10:14;;;;;;;1.40;1.30;;;21.60;48.80;;;;;;4935470;29;20187;-70
2021/12/27 08:12:42;;;;;;;1.25;1.17;;;21.60;48.80;;;;;;4904345;29;20183;-70
2021/12/27 08:15:11;;;;;;;1.70;1.60;;;21.60;48.80;;;;;;4904367;29;20210;-70
2021/12/27 08:17:38;;;;;;;1.85;1.60;;;21.60;48.80;;;;;;4926999;29;20230;-70
2021/12/27 08:20:06;;;;;;;1.73;1.63;;;21.60;48.80;;;;;;4961514;28;20198;-70
2021/12/27 08:22:32;;;;;;;1.80;1.70;;;21.60;48.80;;;;;;4953712;29;20269;-70
2021/12/27 08:24:58;;;;;;;1.77;1.67;;;21.60;48.80;;;;;;4970367;28;20202;-70
2021/12/27 08:27:28;;;;;;;2.00;1.73;;;21.60;48.80;;;;;;4949747;28;20270;-70
2021/12/27 08:29:54;;;;;;;2.05;1.85;;;21.60;48.80;;;;;;4934178;29;20183;-70
2021/12/27 08:32:20;;;;;;;2.05;1.95;;;21.60;48.80;;;;;;4934904;29;20681;-70
2021/12/27 08:34:46;;;;;;;1.75;1.65;;;21.60;48.80;;;;;;4918448;29;20183;-70
2021/12/27 08:37:12;;;;;;;1.40;1.30;;;21.60;48.90;;;;;;4933895;29;20639;-70
2021/12/27 08:39:40;;;;;;;1.70;1.60;;;21.60;48.80;;;;;;4919436;29;20191;-70
2021/12/27 08:42:10;;;;;;;1.42;1.25;;;21.60;48.80;;;;;;4939980;29;20249;-70
2021/12/27 08:44:37;;;;;;;1.27;1.27;;;21.60;48.80;;;;;;4954324;29;20281;-71
2021/12/27 08:47:05;;;;;;;1.40;1.30;;;21.60;48.80;;;;;;4953699;29;20222;-70
2021/12/27 08:49:31;;;;;;;1.38;1.27;;;21.60;48.80;;;;;;4950835;29;20210;-70
2021/12/27 08:51:57;;;;;;;1.38;1.27;;;21.60;49.40;;;;;;4936373;29;20187;-70
2021/12/27 08:54:22;;;;;;;1.38;1.27;;;21.60;48.80;;;;;;4949465;29;20558;-70
2021/12/27 08:56:48;;;;;;;1.42;1.35;;;21.60;48.80;;;;;;4936935;29;20190;-70
2021/12/27 08:59:14;;;;;;;1.30;1.20;;;21.60;48.80;;;;;;4953670;29;20187;-70
2021/12/27 09:01:40;;;;;;;1.40;1.30;;;21.60;48.80;;;;;;4945932;29;20174;-70
2021/12/27 09:04:07;;;;;;;1.50;1.40;;;21.60;48.80;;;;;;4934576;29;20277;-70
2021/12/27 09:06:34;;;;;;;2.20;1.85;;;21.70;48.90;;;;;;4939750;29;20222;-70
2021/12/27 09:09:03;;;;;;;2.72;2.38;;;21.70;48.90;;;;;;4937606;29;20264;-70
2021/12/27 09:11:29;;;;;;;2.20;2.00;;;21.70;48.90;;;;;;4952111;29;20190;-71
2021/12/27 09:13:54;;;;;;;2.10;2.00;;;21.60;48.80;;;;;;4949589;28;20330;-71
2021/12/27 09:16:20;;;;;;;1.98;1.88;;;21.60;48.90;;;;;;4955631;28;20225;-71
2021/12/27 09:18:46;;;;;;;2.40;2.20;;;21.60;48.80;;;;;;4956047;28;20255;-70
2021/12/27 09:21:12;;;;;;;2.42;2.22;;;21.60;48.80;;;;;;4972113;28;20212;-70
2021/12/27 09:23:38;;;;;;;2.20;2.10;;;21.60;48.90;;;;;;4955489;28;20549;-71
2021/12/27 09:26:04;;;;;;;2.10;1.90;;;21.60;48.80;;;;;;4953477;29;20234;-70
2021/12/27 09:28:31;;;;;;;1.60;1.50;;;21.60;48.90;;;;;;4952664;29;20226;-69
2021/12/27 09:30:58;;;;;;;1.40;1.30;;;21.60;48.80;;;;;;4953461;29;20274;-70
2021/12/27 09:33:24;;;;;;;1.40;1.30;;;21.60;48.80;;;;;;4936388;29;20733;-71
2021/12/27 09:35:50;;;;;;;1.67;1.58;;;21.60;48.90;;;;;;4952343;29;20216;-70
2021/12/27 09:38:16;;;;;;;1.40;1.30;;;21.60;48.90;;;;;;4952164;29;20194;-70
2021/12/27 09:40:43;;;;;;;1.52;1.42;;;21.60;48.90;;;;;;4952293;29;20194;-70
2021/12/27 09:43:10;;;;;;;1.73;1.60;;;21.60;48.90;;;;;;4952867;29;20210;-71
2021/12/27 09:45:36;;;;;;;1.58;1.48;;;21.60;48.90;;;;;;4951758;29;20214;-71
2021/12/27 09:48:03;;;;;;;1.40;1.30;;;21.70;49.00;;;;;;4952515;28;20297;-71
2021/12/27 09:50:40;;;;;;;1.50;1.40;;;21.60;48.90;;;;;;4919906;29;20186;-71
2021/12/27 09:53:07;;;;;;;1.42;1.33;;;21.70;49.00;;;;;;4952392;29;20245;-71
2021/12/27 09:55:34;;;;;;;1.70;1.60;;;21.70;49.00;;;;;;4935658;29;20289;-70
2021/12/27 09:58:00;;;;;;;1.80;1.70;;;21.60;48.90;;;;;;4936407;29;20273;-71
2021/12/27 10:00:28;;;;;;;1.90;1.80;;;21.60;48.90;;;;;;4952169;29;20293;-71
2021/12/27 10:02:56;;;;;;;2.05;1.88;;;21.70;48.90;;;;;;4951497;29;20265;-70
2021/12/27 10:05:27;;;;;;;1.98;1.88;;;21.60;48.90;;;;;;4951162;29;20217;-70
2021/12/27 10:07:53;;;;;;;2.10;1.90;;;21.60;48.90;;;;;;4951271;29;20225;-70
2021/12/27 10:10:20;;;;;;;2.15;1.75;;;21.60;48.90;;;;;;4950939;29;20190;-69
2021/12/27 10:12:47;;;;;;;1.83;1.73;;;21.60;48.90;;;;;;4951170;29;20209;-69
2021/12/27 10:15:18;;;;;;;1.73;1.63;;;21.70;48.90;;;;;;4935167;28;20253;-70
2021/12/27 10:17:45;;;;;;;1.65;1.40;;;21.60;48.90;;;;;;4952126;29;20256;-70
2021/12/27 10:20:18;;;;;;;1.27;1.17;;;21.60;48.90;;;;;;4950934;29;20190;-70
2021/12/27 10:22:49;;;;;;;1.40;1.30;;;21.70;49.00;;;;;;4951121;29;20221;-70
2021/12/27 10:25:26;;;;;;;1.45;1.35;;;21.70;49.00;;;;;;4950716;29;20720;-69
2021/12/27 10:27:56;;;;;;;1.33;1.23;;;21.70;49.00;;;;;;4952016;29;20217;-70
2021/12/27 10:30:30;;;;;;;1.48;1.38;;;21.60;48.90;;;;;;4950698;29;20175;-70
2021/12/27 10:33:16;;;;;;;1.73;1.63;;;21.60;48.90;;;;;;4952114;29;20190;-69
2021/12/27 10:35:45;;;;;;;2.35;2.15;;;21.70;49.00;;;;;;4950311;29;20264;-70
2021/12/27 10:38:24;;;;;;;2.20;2.00;;;21.60;49.00;;;;;;4950740;29;20293;-70
2021/12/27 10:41:09;;;;;;;2.05;1.95;;;21.60;48.90;;;;;;4934433;29;20194;-70
2021/12/27 10:43:45;;;;;;;1.70;1.60;;;21.70;49.00;;;;;;4950683;29;20194;-69
2021/12/27 10:46:18;;;;;;;1.63;1.42;;;21.60;48.90;;;;;;4950681;29;20249;-70
2021/12/27 10:48:57;;;;;;;1.70;1.60;;;21.70;49.00;;;;;;4951264;29;20686;-70
2021/12/27 10:51:28;;;;;;;2.33;2.00;;;21.60;48.90;;;;;;4951316;29;20182;-70
2021/12/27 10:54:00;;;;;;;5.32;4.40;;;21.70;49.00;;;;;;4950223;29;20665;-70
2021/12/27 10:56:48;;;;;;;10.02;7.35;;;21.70;49.00;;;;;;4934329;29;20241;-70
2021/12/27 10:59:20;;;;;;;12.05;8.30;;;21.70;49.00;;;;;;4934706;28;20190;-70
2021/12/27 11:01:50;;;;;;;15.50;9.77;;;21.60;48.90;;;;;;4955173;29;20646;-70
2021/12/27 11:04:19;;;;;;;16.23;12.13;;;21.70;49.00;;;;;;4938109;29;20197;-70
2021/12/27 11:06:46;;;;;;;17.77;11.25;;;21.70;49.00;;;;;;4955521;29;20233;-70
2021/12/27 11:09:14;;;;;;;16.73;12.68;;;21.70;49.00;;;;;;4953911;29;20218;-70
2021/12/27 11:11:41;;;;;;;21.02;14.48;;;21.70;49.00;;;;;;4937744;29;20182;-70
2021/12/27 11:14:10;;;;;;;23.05;17.25;;;21.60;48.90;;;;;;4954330;29;20187;-70
2021/12/27 11:16:35;;;;;;;23.40;15.93;;;21.70;49.00;;;;;;4937721;29;20202;-70
2021/12/27 11:19:01;;;;;;;25.35;18.42;;;21.70;49.00;;;;;;4937693;29;20216;-70
2021/12/27 11:21:53;;;;;;;35.15;21.52;;;21.70;49.10;;;;;;4953879;29;20233;-70
2021/12/27 11:24:19;;;;;;;30.85;20.77;;;21.70;49.00;;;;;;4935349;29;20198;-70
2021/12/27 11:26:45;;;;;;;33.78;22.55;;;21.70;49.10;;;;;;4938049;29;20301;-71
2021/12/27 11:29:17;;;;;;;31.40;21.23;;;21.70;49.10;;;;;;4942930;29;20254;-70
2021/12/27 11:32:09;;;;;;;33.55;24.55;;;21.70;49.10;;;;;;4950523;29;20721;-70
2021/12/27 11:34:54;;;;;;;33.92;22.77;;;21.70;49.00;;;;;;4918273;29;20199;-70
2021/12/27 11:37:20;;;;;;;36.58;25.88;;;21.70;49.00;;;;;;4945910;29;20657;-70
2021/12/27 11:39:45;;;;;;;39.40;27.33;;;21.70;49.00;;;;;;4940275;29;20218;-70
2021/12/27 11:42:17;;;;;;;45.20;29.30;;;21.70;49.10;;;;;;4954982;29;20273;-70
2021/12/27 11:44:53;;;;;;;41.20;27.90;;;21.70;49.10;;;;;;4954713;29;20183;-70
2021/12/27 11:47:30;;;;;;;41.92;29.02;;;21.70;49.10;;;;;;4950361;29;20231;-70
2021/12/27 11:50:01;;;;;;;42.90;29.33;;;21.70;49.00;;;;;;4933958;29;20364;-69
2021/12/27 11:52:32;;;;;;;43.10;29.50;;;21.70;49.10;;;;;;4954420;29;20209;-69
2021/12/27 11:55:00;;;;;;;42.35;29.73;;;21.70;49.10;;;;;;4949799;29;20219;-69
2021/12/27 11:57:45;;;;;;;42.28;30.08;;;21.70;49.10;;;;;;4961824;28;20187;-69
2021/12/27 12:00:31;;;;;;;42.28;29.35;;;21.70;49.10;;;;;;4954652;28;20253;-68
2021/12/27 12:03:15;;;;;;;46.83;31.83;;;21.70;49.10;;;;;;4969440;28;20190;-68
2021/12/27 12:05:44;;;;;;;44.67;31.77;;;21.70;49.10;;;;;;4969651;28;20209;-69
2021/12/27 12:08:37;;;;;;;50.05;34.28;;;21.70;49.10;;;;;;4969602;28;20222;-69
2021/12/27 12:11:10;;;;;;;46.65;31.25;;;21.70;49.10;;;;;;4939718;28;20293;-69
2021/12/27 12:13:44;;;;;;;46.15;31.02;;;21.70;49.10;;;;;;4962078;28;20223;-69
2021/12/27 12:16:14;;;;;;;45.75;31.58;;;21.70;49.10;;;;;;4943054;29;20349;-69
2021/12/27 12:19:09;;;;;;;43.97;31.63;;;21.70;49.20;;;;;;4944707;28;20233;-69
2021/12/27 12:21:52;;;;;;;50.05;33.45;;;21.70;49.10;;;;;;4937023;29;20191;-69
2021/12/27 12:24:22;;;;;;;46.85;33.20;;;21.70;49.10;;;;;;4924773;29;20194;-69
2021/12/27 12:27:01;;;;;;;52.70;34.80;;;21.70;49.20;;;;;;4953487;29;20210;-69
2021/12/27 12:29:46;;;;;;;45.53;33.25;;;21.70;49.20;;;;;;4949172;29;20219;-69
2021/12/27 12:32:15;;;;;;;50.75;34.75;;;21.70;49.20;;;;;;4917507;29;20191;-69
2021/12/27 12:34:43;;;;;;;47.97;32.40;;;21.70;49.20;;;;;;4917022;29;20227;-69
2021/12/27 12:37:15;;;;;;;45.10;30.80;;;21.70;49.20;;;;;;4917212;29;20584;-69
2021/12/27 12:39:49;;;;;;;47.05;31.58;;;21.70;49.20;;;;;;4901757;29;20199;-69
2021/12/27 12:42:25;;;;;;;45.92;32.10;;;21.70;49.20;;;;;;4901489;29;20298;-69
2021/12/27 12:45:01;;;;;;;47.58;33.97;;;21.70;49.20;;;;;;4934236;29;20186;-69
2021/12/27 12:47:36;;;;;;;44.40;31.73;;;21.70;49.20;;;;;;4917166;29;20194;-68
2021/12/27 12:50:17;;;;;;;50.42;34.72;;;21.70;49.20;;;;;;4934661;29;20190;-69
2021/12/27 12:52:58;;;;;;;51.88;34.00;;;21.70;49.20;;;;;;4932770;29;20681;-69